Time;durP1;ratioP1;P1;durP2;ratioP2;P2;SDS_P1;SDS_P2;PMS_P1;PMS_P2;Temp;Humidity;BMP_temperature;BMP_pressure;BME280_temperature;BME280_humidity;BME280_pressure;Samples;Min_cycle;Max_cycle;Signal;HPM_P1;HPM_P2
2021/03/06 00:01:27;;;;;;;11.57;4.00;;;;;;;-0.93;86.04;101195.52;1773777;78;22171;-74
2021/03/06 00:03:52;;;;;;;11.97;4.00;;;;;;;-1.00;86.44;101195.33;1778473;78;21156;-74
2021/03/06 00:06:18;;;;;;;11.50;3.93;;;;;;;-0.94;86.10;101196.41;1748173;79;21790;-74
2021/03/06 00:08:44;;;;;;;10.33;4.20;;;;;;;-0.93;86.02;101200.70;1776502;78;21522;-74
2021/03/06 00:11:09;;;;;;;10.47;4.13;;;;;;;-0.99;86.33;101199.63;1776208;78;21031;-74
2021/03/06 00:13:36;;;;;;;11.00;4.00;;;;;;;-1.02;86.60;101212.70;1774409;79;20947;-74
2021/03/06 00:16:02;;;;;;;11.80;4.35;;;;;;;-1.10;86.87;101204.73;1776536;79;21608;-75
2021/03/06 00:18:28;;;;;;;14.80;4.70;;;;;;;-1.11;87.00;101203.03;1774803;79;22344;-75
2021/03/06 00:20:54;;;;;;;10.30;4.23;;;;;;;-1.10;87.17;101202.14;1777343;79;21275;-76
2021/03/06 00:23:20;;;;;;;12.97;4.10;;;;;;;-1.15;87.49;101211.84;1773903;80;20950;-73
2021/03/06 00:25:45;;;;;;;14.43;4.53;;;;;;;-1.11;87.45;101217.30;1773579;79;20939;-74
2021/03/06 00:28:11;;;;;;;13.10;4.90;;;;;;;-1.14;87.69;101208.33;1775487;79;21599;-75
2021/03/06 00:30:37;;;;;;;10.73;3.90;;;;;;;-1.06;87.34;101209.35;1777429;79;22334;-75
2021/03/06 00:33:04;;;;;;;10.40;4.23;;;;;;;-1.11;87.36;101213.41;1773396;78;20905;-75
2021/03/06 00:35:30;;;;;;;15.88;4.55;;;;;;;-1.13;87.59;101216.52;1780797;78;21168;-73
2021/03/06 00:37:56;;;;;;;11.00;4.60;;;;;;;-1.15;87.81;101213.14;1778812;78;20896;-73
2021/03/06 00:40:21;;;;;;;9.70;4.50;;;;;;;-1.11;87.68;101218.59;1773010;78;20968;-74
2021/03/06 00:42:47;;;;;;;8.90;4.20;;;;;;;-1.07;87.61;101212.00;1776111;78;22321;-74
2021/03/06 00:45:13;;;;;;;10.87;4.37;;;;;;;-1.00;87.30;101210.89;1776386;78;21015;-73
2021/03/06 00:47:39;;;;;;;11.05;4.12;;;;;;;-1.02;87.26;101211.41;1777273;78;21232;-75
2021/03/06 00:50:16;;;;;;;9.17;4.40;;;;;;;-1.01;87.20;101213.94;1775073;78;21412;-74
2021/03/06 00:52:42;;;;;;;8.53;4.30;;;;;;;-1.09;87.38;101214.22;1778455;79;21196;-73
2021/03/06 00:55:09;;;;;;;11.20;4.00;;;;;;;-1.19;87.88;101214.59;1777966;78;21072;-73
2021/03/06 00:57:35;;;;;;;10.03;4.42;;;;;;;-1.22;88.07;101212.11;1774394;79;21530;-73
2021/03/06 01:00:01;;;;;;;11.40;5.23;;;;;;;-1.27;88.32;101207.92;1779341;79;21010;-74
2021/03/06 01:02:27;;;;;;;11.35;4.37;;;;;;;-1.22;88.13;101210.36;1774296;79;21173;-74
2021/03/06 01:04:52;;;;;;;13.53;4.97;;;;;;;-1.21;88.04;101199.10;1780588;79;20948;-73
2021/03/06 01:07:18;;;;;;;15.67;4.53;;;;;;;-1.28;88.52;101197.61;1774962;79;21098;-74
2021/03/06 01:09:44;;;;;;;11.07;4.47;;;;;;;-1.26;88.52;101206.17;1777864;79;20951;-74
2021/03/06 01:12:10;;;;;;;10.10;4.40;;;;;;;-1.36;88.72;101199.64;1776439;79;21164;-74
2021/03/06 01:14:35;;;;;;;11.30;4.80;;;;;;;-1.38;88.85;101196.23;1776719;78;20956;-74
2021/03/06 01:17:01;;;;;;;13.23;4.93;;;;;;;-1.41;89.19;101198.94;1782165;78;21699;-74
2021/03/06 01:19:27;;;;;;;11.70;5.17;;;;;;;-1.47;89.61;101210.37;1780101;78;21256;-75
2021/03/06 01:21:52;;;;;;;17.23;6.30;;;;;;;-1.47;89.94;101203.44;1773556;80;20984;-73
2021/03/06 01:24:18;;;;;;;13.17;5.63;;;;;;;-1.54;90.28;101195.93;1778946;79;20908;-74
2021/03/06 01:26:44;;;;;;;10.77;5.03;;;;;;;-1.52;90.48;101194.98;1775877;79;21107;-75
2021/03/06 01:29:09;;;;;;;15.80;6.13;;;;;;;-1.54;90.68;101198.09;1780253;78;20958;-75
2021/03/06 01:31:35;;;;;;;21.40;7.47;;;;;;;-1.54;90.90;101212.34;1774551;79;21414;-73
2021/03/06 01:34:01;;;;;;;20.87;8.07;;;;;;;-1.56;90.96;101214.11;1775102;79;21697;-74
2021/03/06 01:36:27;;;;;;;21.77;9.10;;;;;;;-1.56;91.31;101214.11;1776781;79;21576;-74
2021/03/06 01:38:52;;;;;;;24.43;8.63;;;;;;;-1.61;91.55;101216.02;1777629;79;21553;-73
2021/03/06 01:41:18;;;;;;;29.40;11.23;;;;;;;-1.63;91.78;101215.23;1776684;79;21023;-74
2021/03/06 01:43:44;;;;;;;28.87;11.70;;;;;;;-1.64;91.99;101214.83;1776422;79;21561;-74
2021/03/06 01:46:10;;;;;;;27.03;10.93;;;;;;;-1.66;92.23;101220.52;1775848;79;20920;-75
2021/03/06 01:48:37;;;;;;;27.10;11.03;;;;;;;-1.69;92.43;101212.86;1776679;79;20951;-74
2021/03/06 01:51:03;;;;;;;;;;;;;;;-1.71;92.57;101218.52;1775890;79;21170;-74
2021/03/06 01:53:29;;;;;;;26.87;10.53;;;;;;;-1.69;92.50;101220.16;1780081;79;20733;-73
2021/03/06 01:55:54;;;;;;;26.83;10.17;;;;;;;-1.67;92.53;101216.23;1777972;78;22425;-74
2021/03/06 01:58:20;;;;;;;29.17;12.23;;;;;;;-1.74;92.59;101209.55;1771622;78;21002;-74
2021/03/06 02:00:46;;;;;;;30.07;11.43;;;;;;;-1.70;92.59;101217.63;1760293;80;21026;-74
2021/03/06 02:03:12;;;;;;;32.17;12.00;;;;;;;-1.76;92.97;101219.13;1775866;79;21014;-74
2021/03/06 02:05:38;;;;;;;32.90;12.87;;;;;;;-1.77;93.22;101213.11;1770911;79;20948;-74
2021/03/06 02:08:04;;;;;;;28.83;12.17;;;;;;;-1.66;92.96;101207.58;1772326;79;21502;-73
2021/03/06 02:10:36;;;;;;;33.55;12.55;;;;;;;-1.68;92.87;101206.75;1771902;79;21091;-73
2021/03/06 02:13:31;;;;;;;30.70;12.35;;;;;;;-1.58;92.70;101205.56;1772895;78;21186;-73
2021/03/06 02:16:26;;;;;;;31.90;13.32;;;;;;;-1.59;92.29;101208.20;1773734;79;21184;-73
2021/03/06 02:18:56;;;;;;;27.05;11.45;;;;;;;-1.63;92.23;101206.17;1772881;79;21204;-73
2021/03/06 02:21:45;;;;;;;30.68;11.45;;;;;;;-1.68;92.51;101210.22;1769478;79;21200;-73
2021/03/06 02:24:45;;;;;;;28.60;11.83;;;;;;;-1.68;92.44;101214.52;1773517;79;21464;-72
2021/03/06 02:27:54;;;;;;;28.05;10.98;;;;;;;-1.61;92.24;101216.02;1773083;79;21161;-74
2021/03/06 02:30:20;;;;;;;27.37;10.82;;;;;;;-1.54;91.93;101210.17;1770996;78;21420;-74
2021/03/06 02:32:46;;;;;;;28.77;11.43;;;;;;;-1.58;91.74;101214.62;1774246;79;20905;-74
2021/03/06 02:35:16;;;;;;;26.95;10.53;;;;;;;-1.55;91.45;101217.57;1774223;79;21153;-74
2021/03/06 02:37:46;;;;;;;24.95;10.15;;;;;;;-1.55;91.44;101222.75;1773679;79;21186;-73
2021/03/06 02:40:12;;;;;;;31.42;10.90;;;;;;;-1.50;91.04;101217.79;1771577;79;21212;-74
2021/03/06 02:42:40;;;;;;;26.70;11.15;;;;;;;-1.54;90.94;101216.66;1774577;79;21208;-73
2021/03/06 02:45:07;;;;;;;31.97;12.15;;;;;;;-1.65;90.98;101222.19;1770357;79;21174;-74
2021/03/06 02:47:33;;;;;;;24.40;9.78;;;;;;;-1.70;91.21;101230.11;1772903;78;21432;-74
2021/03/06 02:50:01;;;;;;;27.13;11.40;;;;;;;-1.72;91.27;101236.27;1775042;78;20976;-74
2021/03/06 02:52:27;;;;;;;23.92;9.98;;;;;;;-1.76;91.38;101239.84;1773460;79;21613;-74
2021/03/06 02:54:54;;;;;;;24.47;9.67;;;;;;;-1.80;91.46;101239.09;1772039;79;20972;-74
2021/03/06 02:57:46;;;;;;;27.65;10.55;;;;;;;-1.85;91.59;101240.97;1772453;79;21247;-74
2021/03/06 03:00:43;;;;;;;26.45;10.72;;;;;;;-1.95;91.89;101237.84;1772929;79;22219;-75
2021/03/06 03:03:26;;;;;;;28.87;10.28;;;;;;;-1.93;91.86;101245.09;1775542;79;21164;-75
2021/03/06 03:06:30;;;;;;;19.92;9.28;;;;;;;-1.84;91.36;101246.56;1737253;82;21734;-75
2021/03/06 03:09:07;;;;;;;23.27;9.35;;;;;;;-1.84;91.22;101248.69;1708733;82;21253;-73
2021/03/06 03:12:02;;;;;;;25.27;9.55;;;;;;;-1.83;91.10;101250.39;1710149;82;21185;-75
2021/03/06 03:14:36;;;;;;;22.75;9.10;;;;;;;-1.85;91.23;101245.72;1709319;82;21203;-75
2021/03/06 03:17:11;;;;;;;22.45;10.28;;;;;;;-1.86;91.37;101256.12;1709448;82;22349;-75
2021/03/06 03:19:48;;;;;;;28.40;10.63;;;;;;;-1.81;91.14;101264.13;1716845;82;21197;-75
2021/03/06 03:22:15;;;;;;;25.95;11.08;;;;;;;-1.78;90.95;101262.35;1711995;82;21270;-75
2021/03/06 03:24:41;;;;;;;30.37;12.00;;;;;;;-1.79;90.87;101263.23;1724051;82;21241;-75
2021/03/06 03:27:10;;;;;;;26.23;10.93;;;;;;;-1.88;90.85;101262.65;1775127;79;21345;-74
2021/03/06 03:29:40;;;;;;;23.85;10.53;;;;;;;-1.90;90.91;101268.30;1775585;79;21198;-72
2021/03/06 03:32:08;;;;;;;27.07;10.23;;;;;;;-1.91;90.96;101269.22;1773235;79;21115;-73
2021/03/06 03:34:35;;;;;;;29.23;11.45;;;;;;;-1.89;90.97;101266.12;1771192;79;21198;-73
2021/03/06 03:37:00;;;;;;;27.70;10.93;;;;;;;-1.91;91.16;101269.22;1779354;79;21181;-74
2021/03/06 03:39:26;;;;;;;30.60;11.30;;;;;;;-1.84;90.60;101271.98;1769891;79;22038;-73
2021/03/06 03:41:52;;;;;;;25.00;11.27;;;;;;;-1.77;90.30;101279.56;1773670;79;20935;-73
2021/03/06 03:44:17;;;;;;;23.83;10.50;;;;;;;-1.73;90.02;101278.58;1776983;78;20998;-73
2021/03/06 03:46:43;;;;;;;28.33;11.77;;;;;;;-1.86;90.08;101284.14;1773922;79;21003;-74
2021/03/06 03:49:16;;;;;;;26.70;11.43;;;;;;;-2.00;90.68;101281.15;1778165;78;20944;-74
2021/03/06 03:51:42;;;;;;;30.88;10.90;;;;;;;-2.03;90.89;101274.77;1775026;79;21220;-74
2021/03/06 03:54:08;;;;;;;26.37;11.20;;;;;;;-2.05;90.97;101289.06;1774175;78;20931;-74
2021/03/06 03:56:34;;;;;;;28.95;11.48;;;;;;;-2.08;91.14;101299.92;1772550;80;21196;-75
2021/03/06 03:59:00;;;;;;;29.13;12.10;;;;;;;-2.10;91.21;101304.31;1774045;78;20999;-73
2021/03/06 04:01:26;;;;;;;31.62;11.93;;;;;;;-2.12;91.33;101308.23;1771647;79;21143;-74
2021/03/06 04:03:52;;;;;;;31.83;12.53;;;;;;;-2.22;91.77;101306.81;1773616;79;21662;-73
2021/03/06 04:06:18;;;;;;;31.97;13.37;;;;;;;-2.17;91.67;101303.20;1773418;79;21670;-73
2021/03/06 04:08:44;;;;;;;27.40;13.05;;;;;;;-2.21;91.74;101303.34;1771740;80;21216;-73
2021/03/06 04:11:10;;;;;;;29.07;12.80;;;;;;;-2.26;91.89;101303.47;1774420;79;20925;-73
2021/03/06 04:13:36;;;;;;;28.30;12.77;;;;;;;-2.27;91.79;101310.86;1774938;78;20992;-74
2021/03/06 04:16:02;;;;;;;27.43;11.80;;;;;;;-2.28;91.90;101308.31;1774841;79;21256;-74
2021/03/06 04:18:28;;;;;;;30.75;13.98;;;;;;;-2.32;91.93;101316.59;1774029;79;21553;-74
2021/03/06 04:20:54;;;;;;;31.73;13.87;;;;;;;-2.35;92.02;101314.09;1777309;79;21006;-74
2021/03/06 04:23:19;;;;;;;35.40;15.03;;;;;;;-2.39;92.25;101317.68;1771579;79;20949;-74
2021/03/06 04:25:45;;;;;;;31.23;13.63;;;;;;;-2.37;92.31;101313.30;1774861;79;20922;-74
2021/03/06 04:28:11;;;;;;;34.47;13.97;;;;;;;-2.39;92.08;101317.68;1773357;79;21360;-74
2021/03/06 04:30:37;;;;;;;30.13;13.23;;;;;;;-2.40;92.25;101319.86;1775434;79;21912;-73
2021/03/06 04:33:03;;;;;;;27.13;12.43;;;;;;;-2.45;92.27;101320.44;1773890;79;21101;-73
2021/03/06 04:35:29;;;;;;;30.20;13.25;;;;;;;-2.39;92.09;101320.27;1773401;79;21210;-74
2021/03/06 04:37:54;;;;;;;36.63;14.83;;;;;;;-2.45;92.17;101326.91;1773328;79;20908;-74
2021/03/06 04:40:20;;;;;;;32.50;14.30;;;;;;;-2.47;92.05;101321.78;1771885;79;21257;-74
2021/03/06 04:42:46;;;;;;;30.90;12.13;;;;;;;-2.44;92.13;101329.45;1771488;79;20937;-74
2021/03/06 04:45:12;;;;;;;30.40;12.00;;;;;;;-2.40;92.00;101335.37;1773344;79;20958;-75
2021/03/06 04:47:42;;;;;;;30.77;12.83;;;;;;;-2.42;91.85;101332.00;1776002;78;21023;-75
2021/03/06 04:50:09;;;;;;;31.55;13.35;;;;;;;-2.50;92.13;101333.93;1774425;78;21141;-74
2021/03/06 04:52:35;;;;;;;39.55;14.53;;;;;;;-2.54;92.27;101332.72;1777574;78;21563;-74
2021/03/06 04:55:01;;;;;;;36.23;14.73;;;;;;;-2.58;92.57;101335.44;1774410;78;21008;-74
2021/03/06 04:57:27;;;;;;;31.37;13.80;;;;;;;-2.59;92.50;101335.89;1775022;79;21020;-73
2021/03/06 04:59:55;;;;;;;37.17;14.57;;;;;;;-2.56;92.32;101334.52;1773908;79;20970;-72
2021/03/06 05:02:21;;;;;;;28.67;12.30;;;;;;;-2.62;92.34;101339.02;1778101;79;21180;-73
2021/03/06 05:04:46;;;;;;;36.30;14.80;;;;;;;-2.58;92.32;101347.94;1778610;78;22325;-74
2021/03/06 05:07:12;;;;;;;34.17;13.90;;;;;;;-2.54;92.30;101345.66;1773800;79;20932;-74
2021/03/06 05:09:38;;;;;;;34.27;12.67;;;;;;;-2.47;91.84;101340.31;1777178;79;20935;-74
2021/03/06 05:12:05;;;;;;;32.83;13.70;;;;;;;-2.44;91.52;101340.22;1782817;79;21022;-74
2021/03/06 05:14:30;;;;;;;34.60;13.78;;;;;;;-2.34;91.14;101341.67;1779905;79;21556;-74
2021/03/06 05:16:56;;;;;;;33.93;13.97;;;;;;;-2.37;90.92;101337.88;1776851;78;22223;-74
2021/03/06 05:19:22;;;;;;;22.37;10.77;;;;;;;-2.39;90.99;101338.37;1775140;79;20998;-73
2021/03/06 05:21:48;;;;;;;35.43;13.73;;;;;;;-2.41;91.04;101338.84;1776505;79;20947;-75
2021/03/06 05:24:13;;;;;;;30.00;13.03;;;;;;;-2.46;91.42;101340.72;1775501;79;21053;-75
2021/03/06 05:26:39;;;;;;;27.77;11.30;;;;;;;-2.40;91.18;101340.55;1779351;79;21608;-75
2021/03/06 05:29:05;;;;;;;30.67;13.07;;;;;;;-2.45;91.21;101343.72;1780926;79;22125;-74
2021/03/06 05:31:31;;;;;;;31.43;12.43;;;;;;;-2.40;91.23;101345.27;1778907;79;20990;-74
2021/03/06 05:33:56;;;;;;;27.13;11.97;;;;;;;-2.43;91.16;101349.69;1779067;78;20911;-74
2021/03/06 05:36:23;;;;;;;30.33;12.23;;;;;;;-2.45;91.21;101344.56;1775075;78;21007;-74
2021/03/06 05:38:49;;;;;;;27.80;12.00;;;;;;;-2.37;91.16;101353.39;1776778;78;21177;-74
2021/03/06 05:41:20;;;;;;;27.30;11.40;;;;;;;-2.38;90.83;101356.86;1774180;79;21295;-73
2021/03/06 05:43:45;;;;;;;24.60;11.15;;;;;;;-2.38;90.81;101351.69;1776151;79;21180;-75
2021/03/06 05:46:14;;;;;;;28.77;12.40;;;;;;;-2.40;91.09;101365.13;1775574;79;21051;-73
2021/03/06 05:48:39;;;;;;;31.82;11.65;;;;;;;-2.37;90.99;101361.16;1776455;79;21184;-74
2021/03/06 05:51:05;;;;;;;26.23;11.10;;;;;;;-2.34;90.87;101362.36;1776942;79;20937;-74
2021/03/06 05:53:31;;;;;;;27.43;11.13;;;;;;;-2.30;90.67;101364.41;1775280;79;21187;-74
2021/03/06 05:55:58;;;;;;;28.63;10.90;;;;;;;-2.29;90.88;101360.48;1776790;79;20991;-74
2021/03/06 05:58:24;;;;;;;24.98;10.23;;;;;;;-2.30;90.80;101366.57;1776687;79;21182;-73
2021/03/06 06:00:50;;;;;;;32.53;11.63;;;;;;;-2.25;90.95;101369.86;1781968;79;21608;-75
2021/03/06 06:03:16;;;;;;;38.70;13.57;;;;;;;-2.20;90.83;101374.45;1776960;79;21092;-74
2021/03/06 06:05:42;;;;;;;26.87;11.95;;;;;;;-2.18;90.94;101380.42;1778509;79;22455;-73
2021/03/06 06:08:08;;;;;;;34.00;11.60;;;;;;;-2.09;90.79;101383.20;1778684;79;20962;-72
2021/03/06 06:10:35;;;;;;;24.70;11.60;;;;;;;-2.10;90.45;101386.67;1777031;79;21029;-72
2021/03/06 06:13:00;;;;;;;29.90;13.70;;;;;;;-2.00;90.31;101382.94;1774665;79;21233;-72
2021/03/06 06:15:27;;;;;;;30.70;12.27;;;;;;;-1.96;90.27;101384.98;1775124;79;20924;-71
2021/03/06 06:18:13;;;;;;;28.83;11.95;;;;;;;-1.87;90.10;101393.77;1775078;79;21201;-72
2021/03/06 06:20:40;;;;;;;33.95;12.07;;;;;;;-1.78;89.79;101396.99;1707908;80;24061;-72
2021/03/06 06:23:14;;;;;;;33.67;12.75;;;;;;;-1.78;89.75;101396.99;1706630;82;21155;-72
2021/03/06 06:25:40;;;;;;;32.45;12.28;;;;;;;-1.72;89.60;101403.28;1706842;82;21136;-71
2021/03/06 06:28:06;;;;;;;25.73;10.30;;;;;;;-1.62;89.17;101400.80;1708193;82;21033;-72
2021/03/06 06:30:32;;;;;;;27.73;11.15;;;;;;;-1.43;88.23;101401.52;1706063;82;21410;-70
2021/03/06 06:32:58;;;;;;;24.40;9.48;;;;;;;-1.35;87.65;101408.59;1704889;82;21201;-70
2021/03/06 06:35:24;;;;;;;23.47;10.13;;;;;;;-1.30;87.51;101417.93;1701615;83;21752;-70
2021/03/06 06:38:06;;;;;;;22.80;10.13;;;;;;;-1.28;87.12;101417.88;1704714;83;22515;-71
2021/03/06 06:40:35;;;;;;;22.55;9.73;;;;;;;-1.29;87.18;101421.36;1706199;82;21269;-72
2021/03/06 06:43:01;;;;;;;25.68;9.65;;;;;;;-1.19;86.91;101420.64;1705058;83;21207;-71
2021/03/06 06:45:37;;;;;;;22.70;9.63;;;;;;;-1.20;86.94;101424.12;1701986;82;20965;-71
2021/03/06 06:48:10;;;;;;;26.23;11.05;;;;;;;-1.23;86.90;101421.16;1702718;83;21184;-72
2021/03/06 06:50:36;;;;;;;23.70;10.10;;;;;;;-1.24;86.85;101428.56;1705460;82;21378;-72
2021/03/06 06:53:02;;;;;;;25.03;10.53;;;;;;;-1.36;87.41;101425.89;1709042;83;21093;-72
2021/03/06 06:55:41;;;;;;;29.20;11.50;;;;;;;-1.16;87.52;101437.39;1708928;82;21106;-72
2021/03/06 06:58:07;;;;;;;25.10;10.98;;;;;;;-1.15;87.22;101437.77;1708670;82;21325;-72
2021/03/06 07:00:34;;;;;;;38.43;13.57;;;;;;;-1.07;87.26;101444.00;1706308;83;20974;-71
2021/03/06 07:03:02;;;;;;;30.15;12.65;;;;;;;-1.15;87.32;101450.30;1704811;83;21237;-72
2021/03/06 07:05:34;;;;;;;31.80;13.18;;;;;;;-1.24;87.35;101437.63;1704029;83;21212;-71
2021/03/06 07:08:10;;;;;;;30.92;13.45;;;;;;;-1.05;87.57;101440.48;1703827;83;22113;-70
2021/03/06 07:10:39;;;;;;;33.30;12.50;;;;;;;-1.09;87.19;101445.34;1691742;83;21260;-71
2021/03/06 07:13:10;;;;;;;29.05;11.45;;;;;;;-0.99;87.25;101447.22;1707410;82;21216;-72
2021/03/06 07:15:40;;;;;;;29.07;11.55;;;;;;;-0.92;86.98;101443.51;1702746;82;21195;-69
2021/03/06 07:18:07;;;;;;;29.20;12.45;;;;;;;-0.87;86.89;101444.66;1702625;83;21184;-71
2021/03/06 07:20:39;;;;;;;26.87;12.13;;;;;;;-0.94;87.36;101453.09;1693330;83;22525;-70
2021/03/06 07:23:15;;;;;;;30.30;12.03;;;;;;;-1.10;87.65;101416.45;1685929;84;21587;-70
2021/03/06 07:25:40;;;;;;;26.93;11.90;;;;;;;-0.70;87.35;101442.80;1690368;84;21173;-70
2021/03/06 07:28:07;;;;;;;32.60;14.33;;;;;;;-0.66;86.57;101443.94;1690625;84;20943;-70
2021/03/06 07:30:32;;;;;;;28.25;11.43;;;;;;;-0.53;86.42;101444.36;1690968;82;21564;-70
2021/03/06 07:33:01;;;;;;;30.17;12.13;;;;;;;-0.45;85.23;101435.88;1689951;84;22432;-71
2021/03/06 07:35:27;;;;;;;26.20;11.12;;;;;;;-0.42;85.64;101427.98;1680244;84;21197;-71
2021/03/06 07:37:58;;;;;;;26.97;11.47;;;;;;;-0.31;85.45;101435.83;1688877;84;21038;-71
2021/03/06 07:40:34;;;;;;;26.17;10.88;;;;;;;-0.12;84.51;101439.47;1687600;82;21264;-71
2021/03/06 07:43:19;;;;;;;24.32;10.55;;;;;;;-0.12;84.51;101439.47;1684661;84;21460;-71
2021/03/06 07:45:46;;;;;;;28.92;11.55;;;;;;;-0.27;83.93;101443.91;1688106;83;22204;-71
2021/03/06 07:48:14;;;;;;;23.73;9.85;;;;;;;-0.14;84.30;101446.48;1691292;82;21113;-71
2021/03/06 07:50:42;;;;;;;;;;;;;;;-0.06;83.68;101438.41;1689646;83;21138;-70
2021/03/06 07:53:07;;;;;;;17.48;8.13;;;;;;;0.01;83.27;101445.05;1685416;84;20297;-69
2021/03/06 07:55:34;;;;;;;26.20;10.00;;;;;;;0.10;82.89;101444.72;1692196;83;21651;-70
2021/03/06 07:58:17;;;;;;;25.67;10.20;;;;;;;0.37;82.84;101443.74;1686458;84;21191;-70
2021/03/06 08:00:56;;;;;;;24.57;10.85;;;;;;;0.53;81.78;101455.25;1688613;84;21257;-71
2021/03/06 08:03:32;;;;;;;29.18;10.15;;;;;;;0.48;81.71;101455.43;1685103;84;22247;-70
2021/03/06 08:06:19;;;;;;;19.98;9.05;;;;;;;0.50;80.61;101455.38;1686378;84;22071;-70
2021/03/06 08:08:51;;;;;;;24.18;9.03;;;;;;;0.50;80.61;101455.38;1685693;84;21754;-70
2021/03/06 08:11:20;;;;;;;24.02;9.45;;;;;;;0.53;80.70;101449.59;1689466;84;21661;-70
2021/03/06 08:13:54;;;;;;;20.72;8.53;;;;;;;0.66;79.68;101453.85;1686277;84;21734;-71
2021/03/06 08:16:28;;;;;;;24.40;9.33;;;;;;;0.66;79.68;101453.85;1686225;84;21194;-71
2021/03/06 08:19:13;;;;;;;19.65;8.65;;;;;;;0.64;79.72;101454.37;1689471;82;21456;-70
2021/03/06 08:21:48;;;;;;;21.42;8.85;;;;;;;0.71;79.64;101462.77;1684446;84;21572;-71
2021/03/06 08:24:20;;;;;;;25.82;9.63;;;;;;;0.53;79.39;101466.48;1686604;83;21229;-70
2021/03/06 08:27:07;;;;;;;23.47;9.60;;;;;;;0.51;79.48;101457.05;1683232;84;21252;-70
2021/03/06 08:29:41;;;;;;;20.32;7.65;;;;;;;0.60;79.64;101462.35;1687855;82;21171;-71
2021/03/06 08:32:25;;;;;;;23.10;9.00;;;;;;;0.78;79.01;101463.37;1685383;84;21253;-70
2021/03/06 08:34:55;;;;;;;25.80;9.33;;;;;;;0.85;78.93;101462.23;1688187;84;21220;-70
2021/03/06 08:37:28;;;;;;;21.25;8.68;;;;;;;0.97;78.57;101455.23;1684793;83;21968;-72
2021/03/06 08:39:58;;;;;;;26.82;9.20;;;;;;;1.16;78.51;101466.20;1688486;82;21197;-71
2021/03/06 08:42:34;;;;;;;27.82;11.25;;;;;;;1.19;77.31;101460.86;1680677;84;21626;-71
2021/03/06 08:45:15;;;;;;;23.92;9.80;;;;;;;1.29;77.46;101462.19;1684219;84;21248;-72
2021/03/06 08:47:44;;;;;;;23.75;10.20;;;;;;;1.19;75.86;101463.47;1681401;84;21225;-71
2021/03/06 08:50:18;;;;;;;25.70;9.53;;;;;;;1.22;76.13;101457.67;1683919;84;21559;-71
2021/03/06 08:53:03;;;;;;;20.02;7.45;;;;;;;1.33;76.12;101470.70;1682025;84;21217;-71
2021/03/06 08:55:40;;;;;;;23.40;8.05;;;;;;;1.21;73.78;101459.91;1672837;82;21213;-71
2021/03/06 08:58:05;;;;;;;23.22;7.75;;;;;;;1.24;74.20;101458.91;1691959;83;21248;-72
2021/03/06 09:00:36;;;;;;;20.93;7.67;;;;;;;1.31;74.23;101455.16;1686232;82;21632;-72
2021/03/06 09:03:16;;;;;;;19.37;8.18;;;;;;;1.35;73.89;101451.52;1687386;84;21879;-73
2021/03/06 09:05:43;;;;;;;20.30;8.90;;;;;;;1.38;73.99;101461.80;1684546;84;21650;-73
2021/03/06 09:08:10;;;;;;;18.32;8.13;;;;;;;1.37;74.19;101465.31;1679804;84;26755;-72
2021/03/06 09:10:43;;;;;;;20.70;8.00;;;;;;;1.26;73.38;101459.71;1680344;84;21650;-72
2021/03/06 09:13:22;;;;;;;23.05;8.75;;;;;;;1.33;73.04;101463.73;1682484;84;21197;-73
2021/03/06 09:15:52;;;;;;;18.50;7.75;;;;;;;1.52;73.68;101449.94;1679716;84;21218;-71
2021/03/06 09:18:24;;;;;;;17.48;6.90;;;;;;;1.64;72.38;101450.72;1686099;84;21547;-71
2021/03/06 09:21:05;;;;;;;14.87;6.33;;;;;;;1.58;68.97;101452.28;1671271;84;21211;-71
2021/03/06 09:23:37;;;;;;;15.18;5.83;;;;;;;1.60;69.19;101447.84;1682204;83;22120;-72
2021/03/06 09:26:13;;;;;;;15.05;5.62;;;;;;;1.71;68.62;101455.19;1684714;84;21153;-72
2021/03/06 09:28:38;;;;;;;13.80;5.28;;;;;;;1.83;68.32;101449.91;1689397;82;21505;-73
2021/03/06 09:31:26;;;;;;;12.53;5.07;;;;;;;1.77;67.21;101454.92;1691148;83;21653;-72
2021/03/06 09:33:51;;;;;;;13.43;5.00;;;;;;;1.67;67.17;101457.09;1687929;83;21264;-73
2021/03/06 09:36:19;;;;;;;14.20;5.05;;;;;;;1.56;67.27;101454.95;1670518;84;21189;-73
2021/03/06 09:38:53;;;;;;;15.60;6.00;;;;;;;1.50;67.75;101451.77;1682218;84;21189;-73
2021/03/06 09:41:33;;;;;;;16.97;5.90;;;;;;;1.53;68.69;101443.84;1671629;84;40688;-72
2021/03/06 09:43:59;;;;;;;13.40;5.62;;;;;;;1.64;67.85;101449.88;1684015;84;21236;-72
2021/03/06 09:46:34;;;;;;;12.23;4.45;;;;;;;1.40;67.00;101457.37;1684792;84;21244;-73
2021/03/06 09:49:16;;;;;;;10.60;4.72;;;;;;;1.45;65.85;101444.63;1686091;83;21141;-73
2021/03/06 09:51:53;;;;;;;10.72;4.97;;;;;;;1.52;66.13;101452.55;1681273;84;21229;-73
2021/03/06 09:54:21;;;;;;;13.22;4.72;;;;;;;1.66;66.02;101441.07;1681080;84;21970;-74
2021/03/06 09:56:59;;;;;;;12.45;4.72;;;;;;;1.73;65.80;101442.50;1688402;84;21241;-72
2021/03/06 09:59:28;;;;;;;11.40;4.42;;;;;;;1.88;65.30;101438.83;1686605;84;21226;-72
2021/03/06 10:02:06;;;;;;;12.90;4.62;;;;;;;1.87;63.92;101444.97;1689902;84;21598;-72
2021/03/06 10:04:31;;;;;;;11.05;4.03;;;;;;;1.95;62.77;101432.44;1688441;84;21213;-73
2021/03/06 10:06:58;;;;;;;10.40;4.67;;;;;;;2.10;63.15;101438.27;1690162;82;21621;-73
2021/03/06 10:09:25;;;;;;;13.32;4.95;;;;;;;2.18;62.71;101447.51;1687593;83;21717;-72
2021/03/06 10:11:55;;;;;;;11.95;4.62;;;;;;;2.25;61.39;101451.06;1689323;83;21210;-72
2021/03/06 10:14:24;;;;;;;10.53;4.70;;;;;;;2.27;61.68;101444.02;1685615;84;21216;-72
2021/03/06 10:16:55;;;;;;;11.10;4.03;;;;;;;2.50;61.32;101445.98;1689510;83;21243;-72
2021/03/06 10:19:24;;;;;;;9.00;3.92;;;;;;;2.57;58.52;101446.57;1684071;83;21605;-74
2021/03/06 10:22:11;;;;;;;10.90;4.33;;;;;;;2.60;57.44;101445.12;1681324;83;21276;-72
2021/03/06 10:24:58;;;;;;;12.45;4.00;;;;;;;2.84;57.01;101446.56;1682179;84;21249;-73
2021/03/06 10:27:43;;;;;;;11.10;4.00;;;;;;;2.93;56.29;101439.20;1688237;84;21165;-72
2021/03/06 10:30:27;;;;;;;5.67;2.65;;;;;;;2.93;54.10;101444.41;1680303;84;21197;-72
2021/03/06 10:32:57;;;;;;;6.95;2.70;;;;;;;2.94;50.55;101451.33;1681830;83;21201;-72
2021/03/06 10:35:46;;;;;;;5.00;2.22;;;;;;;2.90;50.14;101445.87;1681018;82;21212;-72
2021/03/06 10:38:31;;;;;;;6.22;2.67;;;;;;;2.91;49.09;101451.48;1688468;84;21153;-72
2021/03/06 10:41:02;;;;;;;5.72;2.58;;;;;;;2.94;47.95;101448.72;1686817;82;21193;-74
2021/03/06 10:43:41;;;;;;;4.72;2.45;;;;;;;3.03;47.90;101438.67;1683589;83;21213;-72
2021/03/06 10:46:19;;;;;;;9.78;3.02;;;;;;;3.13;47.99;101440.83;1673198;84;23134;-71
2021/03/06 10:48:53;;;;;;;5.33;2.40;;;;;;;3.04;48.64;101427.77;1686012;84;21244;-72
2021/03/06 10:51:20;;;;;;;6.67;2.80;;;;;;;2.99;48.66;101431.91;1690402;83;21185;-72
2021/03/06 10:54:00;;;;;;;5.33;2.60;;;;;;;2.92;48.86;101427.05;1688360;84;21241;-72
2021/03/06 10:56:26;;;;;;;6.45;2.80;;;;;;;3.00;49.19;101423.63;1686008;84;21185;-72
2021/03/06 10:58:52;;;;;;;7.63;2.87;;;;;;;3.18;49.22;101423.99;1682608;84;21456;-71
2021/03/06 11:01:18;;;;;;;5.90;2.93;;;;;;;3.14;49.35;101425.53;1688517;84;21265;-72
2021/03/06 11:03:46;;;;;;;5.23;2.60;;;;;;;3.20;49.63;101410.87;1686995;84;20979;-72
2021/03/06 11:06:13;;;;;;;5.72;2.87;;;;;;;2.99;49.75;101419.33;1686023;84;21252;-71
2021/03/06 11:08:40;;;;;;;6.78;2.90;;;;;;;2.90;50.83;101405.42;1688545;84;21173;-70
2021/03/06 11:11:07;;;;;;;7.60;3.20;;;;;;;2.99;51.62;101400.59;1688932;84;22154;-71
2021/03/06 11:13:45;;;;;;;6.97;2.92;;;;;;;3.07;51.92;101415.86;1678357;84;21237;-72
2021/03/06 11:16:12;;;;;;;9.10;2.85;;;;;;;2.85;51.51;101401.27;1684875;84;21212;-72
2021/03/06 11:18:40;;;;;;;7.10;2.77;;;;;;;2.92;51.40;101383.56;1687455;82;21157;-72
2021/03/06 11:21:13;;;;;;;7.92;3.12;;;;;;;3.13;52.29;101371.19;1681857;84;21189;-71
2021/03/06 11:23:40;;;;;;;5.72;3.00;;;;;;;3.23;53.13;101365.89;1680763;83;21660;-71
2021/03/06 11:26:06;;;;;;;7.33;2.67;;;;;;;3.38;52.04;101371.23;1679078;83;21236;-72
2021/03/06 11:28:32;;;;;;;7.60;2.90;;;;;;;3.32;50.74;101363.73;1682867;83;21035;-70
2021/03/06 11:30:59;;;;;;;7.95;3.55;;;;;;;3.30;51.39;101367.72;1680465;83;27663;-72